sensor_id;sensor_type;location;lat;lon;timestamp;pressure;altitude;pressure_sealevel;temperature;humidity
36378;BME280;22402;42.746;23.606;2023-05-09T00:02:09;93745.00;;;17.34;78.20
36378;BME280;22402;42.746;23.606;2023-05-09T00:04:34;93748.59;;;17.33;78.34
36378;BME280;22402;42.746;23.606;2023-05-09T00:07:00;93741.72;;;17.32;78.36
36378;BME280;22402;42.746;23.606;2023-05-09T00:09:26;93742.88;;;17.29;78.04
36378;BME280;22402;42.746;23.606;2023-05-09T00:11:51;93741.06;;;17.30;78.44
36378;BME280;22402;42.746;23.606;2023-05-09T00:14:17;93739.44;;;17.29;78.51
36378;BME280;22402;42.746;23.606;2023-05-09T00:16:45;93732.34;;;17.29;78.22
36378;BME280;22402;42.746;23.606;2023-05-09T00:19:11;93728.91;;;17.29;77.99
36378;BME280;22402;42.746;23.606;2023-05-09T00:21:37;93735.13;;;17.28;78.76
36378;BME280;22402;42.746;23.606;2023-05-09T00:24:03;93724.59;;;17.28;78.53
36378;BME280;22402;42.746;23.606;2023-05-09T00:26:29;93716.88;;;17.26;78.37
36378;BME280;22402;42.746;23.606;2023-05-09T00:28:55;93719.53;;;17.26;78.39
36378;BME280;22402;42.746;23.606;2023-05-09T00:31:20;93716.25;;;17.24;78.57
36378;BME280;22402;42.746;23.606;2023-05-09T00:33:45;93711.16;;;17.23;78.32
36378;BME280;22402;42.746;23.606;2023-05-09T00:36:11;93708.69;;;17.21;78.76
36378;BME280;22402;42.746;23.606;2023-05-09T00:38:36;93702.97;;;17.18;78.42
36378;BME280;22402;42.746;23.606;2023-05-09T00:41:02;93714.16;;;17.20;78.73
36378;BME280;22402;42.746;23.606;2023-05-09T00:43:28;93713.50;;;17.18;78.86
36378;BME280;22402;42.746;23.606;2023-05-09T00:45:53;93706.66;;;17.08;78.17
36378;BME280;22402;42.746;23.606;2023-05-09T00:48:20;93708.59;;;17.15;78.70
36378;BME280;22402;42.746;23.606;2023-05-09T00:50:45;93715.69;;;17.14;78.51
36378;BME280;22402;42.746;23.606;2023-05-09T00:53:17;93717.50;;;17.14;78.70
36378;BME280;22402;42.746;23.606;2023-05-09T00:55:43;93714.22;;;17.12;78.96
36378;BME280;22402;42.746;23.606;2023-05-09T00:58:10;93720.50;;;17.11;78.62
36378;BME280;22402;42.746;23.606;2023-05-09T01:00:35;93719.84;;;17.08;78.69
36378;BME280;22402;42.746;23.606;2023-05-09T01:03:01;93723.47;;;17.07;78.88
36378;BME280;22402;42.746;23.606;2023-05-09T01:05:47;93730.72;;;17.05;79.16
36378;BME280;22402;42.746;23.606;2023-05-09T01:11:22;93731.91;;;17.03;79.01
36378;BME280;22402;42.746;23.606;2023-05-09T01:19:58;93743.13;;;16.97;79.09
36378;BME280;22402;42.746;23.606;2023-05-09T01:22:32;93741.66;;;16.94;79.37
36378;BME280;22402;42.746;23.606;2023-05-09T01:25:31;93731.69;;;16.90;79.22
36378;BME280;22402;42.746;23.606;2023-05-09T01:28:18;93735.47;;;16.87;79.39
36378;BME280;22402;42.746;23.606;2023-05-09T01:30:50;93731.19;;;16.86;79.20
36378;BME280;22402;42.746;23.606;2023-05-09T01:33:19;93734.97;;;16.83;79.19
36378;BME280;22402;42.746;23.606;2023-05-09T01:35:50;93735.34;;;16.80;79.14
36378;BME280;22402;42.746;23.606;2023-05-09T01:38:21;93730.59;;;16.76;79.39
36378;BME280;22402;42.746;23.606;2023-05-09T01:40:51;93728.94;;;16.75;79.38
36378;BME280;22402;42.746;23.606;2023-05-09T01:43:19;93736.34;;;16.71;79.80
36378;BME280;22402;42.746;23.606;2023-05-09T01:45:46;93745.44;;;16.69;79.16
36378;BME280;22402;42.746;23.606;2023-05-09T01:48:13;93741.50;;;16.64;79.20
36378;BME280;22402;42.746;23.606;2023-05-09T01:50:39;93741.69;;;16.63;79.54
36378;BME280;22402;42.746;23.606;2023-05-09T01:53:06;93742.84;;;16.60;79.58
36378;BME280;22402;42.746;23.606;2023-05-09T01:55:34;93743.19;;;16.57;79.16
36378;BME280;22402;42.746;23.606;2023-05-09T01:58:03;93743.72;;;16.53;79.60
36378;BME280;22402;42.746;23.606;2023-05-09T02:00:31;93745.06;;;16.49;79.65
36378;BME280;22402;42.746;23.606;2023-05-09T02:02:58;93736.69;;;16.45;79.53
36378;BME280;22402;42.746;23.606;2023-05-09T02:05:26;93741.13;;;16.45;79.22
36378;BME280;22402;42.746;23.606;2023-05-09T02:07:53;93740.63;;;16.41;79.46
36378;BME280;22402;42.746;23.606;2023-05-09T02:10:21;93742.81;;;16.37;79.74
36378;BME280;22402;42.746;23.606;2023-05-09T02:12:50;93733.44;;;16.35;79.65
36378;BME280;22402;42.746;23.606;2023-05-09T02:15:15;93741.53;;;16.33;79.71
36378;BME280;22402;42.746;23.606;2023-05-09T02:17:40;93740.03;;;16.31;79.44
36378;BME280;22402;42.746;23.606;2023-05-09T02:20:07;93735.28;;;16.26;79.90
36378;BME280;22402;42.746;23.606;2023-05-09T02:22:34;93743.38;;;16.25;79.57
36378;BME280;22402;42.746;23.606;2023-05-09T02:25:01;93737.63;;;16.21;79.96
36378;BME280;22402;42.746;23.606;2023-05-09T02:27:31;93737.78;;;16.20;79.53
36378;BME280;22402;42.746;23.606;2023-05-09T02:30:00;93745.84;;;16.18;79.64
36378;BME280;22402;42.746;23.606;2023-05-09T02:32:30;93746.03;;;16.16;79.44
36378;BME280;22402;42.746;23.606;2023-05-09T02:34:56;93737.00;;;16.11;79.74
36378;BME280;22402;42.746;23.606;2023-05-09T02:37:22;93747.88;;;16.08;79.65
36378;BME280;22402;42.746;23.606;2023-05-09T02:39:48;93742.94;;;16.05;79.38
36378;BME280;22402;42.746;23.606;2023-05-09T02:42:15;93740.66;;;16.02;79.44
36378;BME280;22402;42.746;23.606;2023-05-09T02:44:41;93754.97;;;15.99;79.33
36378;BME280;22402;42.746;23.606;2023-05-09T02:47:06;93751.84;;;15.95;79.54
36378;BME280;22402;42.746;23.606;2023-05-09T02:49:32;93741.69;;;15.84;79.03
36378;BME280;22402;42.746;23.606;2023-05-09T02:51:58;93735.16;;;15.80;78.94
36378;BME280;22402;42.746;23.606;2023-05-09T02:54:24;93746.13;;;15.84;78.84
36378;BME280;22402;42.746;23.606;2023-05-09T02:56:50;93757.00;;;15.81;78.95
36378;BME280;22402;42.746;23.606;2023-05-09T02:59:17;93756.19;;;15.80;79.09
36378;BME280;22402;42.746;23.606;2023-05-09T03:01:43;93751.41;;;15.76;78.59
36378;BME280;22402;42.746;23.606;2023-05-09T03:04:08;93751.41;;;15.67;78.70
36378;BME280;22402;42.746;23.606;2023-05-09T03:06:34;93758.34;;;15.68;78.33
36378;BME280;22402;42.746;23.606;2023-05-09T03:09:00;93755.00;;;15.66;78.68
36378;BME280;22402;42.746;23.606;2023-05-09T03:11:26;93766.69;;;15.64;78.47
36378;BME280;22402;42.746;23.606;2023-05-09T03:13:51;93761.13;;;15.59;78.43
36378;BME280;22402;42.746;23.606;2023-05-09T03:16:17;93763.75;;;15.59;78.44
36378;BME280;22402;42.746;23.606;2023-05-09T03:18:43;93766.72;;;15.56;78.67
36378;BME280;22402;42.746;23.606;2023-05-09T03:21:08;93769.50;;;15.54;78.37
36378;BME280;22402;42.746;23.606;2023-05-09T03:23:34;93772.44;;;15.51;78.35
36378;BME280;22402;42.746;23.606;2023-05-09T03:25:59;93770.97;;;15.48;78.33
36378;BME280;22402;42.746;23.606;2023-05-09T03:28:26;93778.84;;;15.48;78.26
36378;BME280;22402;42.746;23.606;2023-05-09T03:30:52;93772.13;;;15.46;78.63
36378;BME280;22402;42.746;23.606;2023-05-09T03:33:17;93785.25;;;15.46;78.50
36378;BME280;22402;42.746;23.606;2023-05-09T03:35:42;93773.13;;;15.45;79.37
36378;BME280;22402;42.746;23.606;2023-05-09T03:38:08;93784.63;;;15.44;79.23
36378;BME280;22402;42.746;23.606;2023-05-09T03:40:34;93787.25;;;15.44;79.67
36378;BME280;22402;42.746;23.606;2023-05-09T03:42:59;93794.13;;;15.45;79.62
36378;BME280;22402;42.746;23.606;2023-05-09T03:45:24;93785.44;;;15.44;80.19
36378;BME280;22402;42.746;23.606;2023-05-09T03:47:50;93783.44;;;15.46;79.98
36378;BME280;22402;42.746;23.606;2023-05-09T03:50:15;93779.84;;;15.47;80.31
36378;BME280;22402;42.746;23.606;2023-05-09T03:52:41;93789.03;;;15.52;80.53
36378;BME280;22402;42.746;23.606;2023-05-09T03:55:06;93787.88;;;15.54;80.53
36378;BME280;22402;42.746;23.606;2023-05-09T03:57:33;93793.00;;;15.56;80.70
36378;BME280;22402;42.746;23.606;2023-05-09T03:59:59;93795.44;;;15.57;81.31
36378;BME280;22402;42.746;23.606;2023-05-09T04:02:25;93795.44;;;15.57;81.10
36378;BME280;22402;42.746;23.606;2023-05-09T04:04:50;93789.69;;;15.62;81.12
36378;BME280;22402;42.746;23.606;2023-05-09T04:07:17;93799.03;;;15.64;81.53
36378;BME280;22402;42.746;23.606;2023-05-09T04:09:43;93797.06;;;15.66;81.79
36378;BME280;22402;42.746;23.606;2023-05-09T04:12:09;93785.41;;;15.61;81.71
36378;BME280;22402;42.746;23.606;2023-05-09T04:14:35;93799.38;;;15.69;81.88
36378;BME280;22402;42.746;23.606;2023-05-09T04:17:00;93800.88;;;15.72;82.03
36378;BME280;22402;42.746;23.606;2023-05-09T04:19:25;93798.91;;;15.74;81.98
36378;BME280;22402;42.746;23.606;2023-05-09T04:21:51;93793.81;;;15.72;82.60
36378;BME280;22402;42.746;23.606;2023-05-09T04:24:16;93809.03;;;15.85;82.75
36378;BME280;22402;42.746;23.606;2023-05-09T04:26:42;93812.00;;;15.90;82.59
36378;BME280;22402;42.746;23.606;2023-05-09T04:29:08;93807.41;;;15.92;82.97
36378;BME280;22402;42.746;23.606;2023-05-09T04:31:33;93812.81;;;15.99;82.94
36378;BME280;22402;42.746;23.606;2023-05-09T04:33:59;93812.47;;;16.02;83.38
36378;BME280;22402;42.746;23.606;2023-05-09T04:36:24;93810.16;;;16.07;82.96
36378;BME280;22402;42.746;23.606;2023-05-09T04:38:51;93809.81;;;16.10;83.15
36378;BME280;22402;42.746;23.606;2023-05-09T04:41:17;93808.34;;;16.16;83.17
36378;BME280;22402;42.746;23.606;2023-05-09T04:43:42;93812.09;;;16.22;83.58
36378;BME280;22402;42.746;23.606;2023-05-09T04:46:08;93816.69;;;16.28;83.41
36378;BME280;22402;42.746;23.606;2023-05-09T04:48:34;93805.81;;;16.31;84.04
36378;BME280;22402;42.746;23.606;2023-05-09T04:51:00;93811.41;;;16.36;83.82
36378;BME280;22402;42.746;23.606;2023-05-09T04:53:26;93810.72;;;16.42;83.98
36378;BME280;22402;42.746;23.606;2023-05-09T04:55:53;93811.00;;;16.47;84.10
36378;BME280;22402;42.746;23.606;2023-05-09T04:58:18;93806.06;;;16.52;84.20
36378;BME280;22402;42.746;23.606;2023-05-09T05:00:44;93805.56;;;16.57;84.62
36378;BME280;22402;42.746;23.606;2023-05-09T05:03:10;93804.03;;;16.62;84.68
36378;BME280;22402;42.746;23.606;2023-05-09T05:05:36;93806.97;;;16.68;84.78
36378;BME280;22402;42.746;23.606;2023-05-09T05:08:02;93802.66;;;16.75;84.72
36378;BME280;22402;42.746;23.606;2023-05-09T05:10:27;93799.19;;;16.82;84.93
36378;BME280;22402;42.746;23.606;2023-05-09T05:12:54;93801.94;;;16.89;84.94
36378;BME280;22402;42.746;23.606;2023-05-09T05:15:20;93805.53;;;16.96;84.83
36378;BME280;22402;42.746;23.606;2023-05-09T05:17:45;93800.56;;;17.01;84.60
36378;BME280;22402;42.746;23.606;2023-05-09T05:20:11;93804.13;;;17.08;84.91
36378;BME280;22402;42.746;23.606;2023-05-09T05:22:36;93790.59;;;17.12;84.98
36378;BME280;22402;42.746;23.606;2023-05-09T05:25:02;93796.09;;;17.25;84.99
36378;BME280;22402;42.746;23.606;2023-05-09T05:27:28;93801.31;;;17.33;84.82
36378;BME280;22402;42.746;23.606;2023-05-09T05:29:54;93805.72;;;17.41;85.21
36378;BME280;22402;42.746;23.606;2023-05-09T05:32:19;93795.44;;;17.46;85.58
36378;BME280;22402;42.746;23.606;2023-05-09T05:34:45;93803.28;;;17.54;85.33
36378;BME280;22402;42.746;23.606;2023-05-09T05:37:10;93801.41;;;17.63;85.74
36378;BME280;22402;42.746;23.606;2023-05-09T05:39:36;93804.31;;;17.68;85.82
36378;BME280;22402;42.746;23.606;2023-05-09T05:42:01;93802.59;;;17.75;85.74
36378;BME280;22402;42.746;23.606;2023-05-09T05:44:27;93802.56;;;17.83;85.56
36378;BME280;22402;42.746;23.606;2023-05-09T05:46:53;93810.78;;;17.88;85.61
36378;BME280;22402;42.746;23.606;2023-05-09T05:49:18;93813.50;;;17.95;85.43
36378;BME280;22402;42.746;23.606;2023-05-09T05:51:43;93802.06;;;18.03;85.52
36378;BME280;22402;42.746;23.606;2023-05-09T05:54:10;93799.69;;;18.08;85.25
36378;BME280;22402;42.746;23.606;2023-05-09T05:56:35;93806.50;;;18.17;85.70
36378;BME280;22402;42.746;23.606;2023-05-09T05:59:01;93799.31;;;18.26;85.34
36378;BME280;22402;42.746;23.606;2023-05-09T06:01:26;93809.78;;;18.34;85.47
36378;BME280;22402;42.746;23.606;2023-05-09T06:03:52;93807.88;;;18.42;85.38
36378;BME280;22402;42.746;23.606;2023-05-09T06:06:21;93808.78;;;18.50;85.06
36378;BME280;22402;42.746;23.606;2023-05-09T06:08:47;93809.69;;;18.57;84.76
36378;BME280;22402;42.746;23.606;2023-05-09T06:11:17;93806.84;;;18.58;84.41
36378;BME280;22402;42.746;23.606;2023-05-09T06:13:43;93813.50;;;18.69;84.46
36378;BME280;22402;42.746;23.606;2023-05-09T06:16:08;93813.59;;;18.76;84.88
36378;BME280;22402;42.746;23.606;2023-05-09T06:18:34;93807.78;;;18.80;84.87
36378;BME280;22402;42.746;23.606;2023-05-09T06:21:02;93809.66;;;18.86;85.13
36378;BME280;22402;42.746;23.606;2023-05-09T06:23:28;93812.56;;;18.92;85.19
36378;BME280;22402;42.746;23.606;2023-05-09T06:25:53;93804.09;;;18.96;85.07
36378;BME280;22402;42.746;23.606;2023-05-09T06:28:18;93806.19;;;19.01;85.20
36378;BME280;22402;42.746;23.606;2023-05-09T06:30:44;93811.47;;;19.01;85.14
36378;BME280;22402;42.746;23.606;2023-05-09T06:33:10;93822.09;;;19.07;84.90
36378;BME280;22402;42.746;23.606;2023-05-09T06:35:35;93817.41;;;19.09;84.58
36378;BME280;22402;42.746;23.606;2023-05-09T06:38:00;93819.06;;;19.10;84.76
36378;BME280;22402;42.746;23.606;2023-05-09T06:40:26;93818.06;;;19.11;84.61
36378;BME280;22402;42.746;23.606;2023-05-09T06:42:51;93811.97;;;19.11;84.43
36378;BME280;22402;42.746;23.606;2023-05-09T06:45:17;93814.59;;;19.11;84.51
36378;BME280;22402;42.746;23.606;2023-05-09T06:47:42;93813.59;;;19.12;84.61
36378;BME280;22402;42.746;23.606;2023-05-09T06:50:08;93812.78;;;19.11;84.43
36378;BME280;22402;42.746;23.606;2023-05-09T06:52:34;93822.34;;;19.12;84.54
36378;BME280;22402;42.746;23.606;2023-05-09T06:55:00;93815.25;;;19.13;84.65
36378;BME280;22402;42.746;23.606;2023-05-09T06:57:25;93807.13;;;19.15;84.65
36378;BME280;22402;42.746;23.606;2023-05-09T06:59:51;93807.94;;;19.15;84.43
36378;BME280;22402;42.746;23.606;2023-05-09T07:02:17;93805.75;;;19.19;84.48
36378;BME280;22402;42.746;23.606;2023-05-09T07:04:42;93814.50;;;19.19;84.55
36378;BME280;22402;42.746;23.606;2023-05-09T07:07:08;93813.31;;;19.22;84.61
36378;BME280;22402;42.746;23.606;2023-05-09T07:09:33;93812.94;;;19.25;84.46
36378;BME280;22402;42.746;23.606;2023-05-09T07:11:59;93814.72;;;19.24;84.35
36378;BME280;22402;42.746;23.606;2023-05-09T07:14:26;93815.38;;;19.26;84.30
36378;BME280;22402;42.746;23.606;2023-05-09T07:16:52;93810.72;;;19.28;84.30
36378;BME280;22402;42.746;23.606;2023-05-09T07:19:17;93814.81;;;19.31;84.10
36378;BME280;22402;42.746;23.606;2023-05-09T07:21:43;93812.78;;;19.33;84.36
36378;BME280;22402;42.746;23.606;2023-05-09T07:24:08;93814.06;;;19.37;84.38
36378;BME280;22402;42.746;23.606;2023-05-09T07:26:34;93815.53;;;19.40;84.31
36378;BME280;22402;42.746;23.606;2023-05-09T07:29:00;93821.25;;;19.43;84.18
36378;BME280;22402;42.746;23.606;2023-05-09T07:31:25;93817.56;;;19.44;84.04
36378;BME280;22402;42.746;23.606;2023-05-09T07:33:51;93816.38;;;19.47;84.16
36378;BME280;22402;42.746;23.606;2023-05-09T07:36:16;93812.72;;;19.48;84.04
36378;BME280;22402;42.746;23.606;2023-05-09T07:38:42;93817.63;;;19.51;84.44
36378;BME280;22402;42.746;23.606;2023-05-09T07:41:08;93807.06;;;19.51;84.21
36378;BME280;22402;42.746;23.606;2023-05-09T07:43:34;93813.41;;;19.56;84.17
36378;BME280;22402;42.746;23.606;2023-05-09T07:45:59;93809.56;;;19.59;84.11
36378;BME280;22402;42.746;23.606;2023-05-09T07:48:27;93807.56;;;19.61;84.04
36378;BME280;22402;42.746;23.606;2023-05-09T07:50:53;93823.06;;;19.64;84.14
36378;BME280;22402;42.746;23.606;2023-05-09T07:53:18;93818.44;;;19.66;84.18
36378;BME280;22402;42.746;23.606;2023-05-09T07:55:44;93833.28;;;19.67;84.00
36378;BME280;22402;42.746;23.606;2023-05-09T07:58:11;93824.72;;;19.65;84.34
36378;BME280;22402;42.746;23.606;2023-05-09T08:00:37;93826.81;;;19.70;84.28
36378;BME280;22402;42.746;23.606;2023-05-09T08:03:02;93828.03;;;19.74;84.38
36378;BME280;22402;42.746;23.606;2023-05-09T08:05:28;93831.31;;;19.76;84.17
36378;BME280;22402;42.746;23.606;2023-05-09T08:07:53;93826.47;;;19.79;84.25
36378;BME280;22402;42.746;23.606;2023-05-09T08:10:19;93820.78;;;19.83;84.27
36378;BME280;22402;42.746;23.606;2023-05-09T08:12:46;93816.31;;;19.83;84.13
36378;BME280;22402;42.746;23.606;2023-05-09T08:15:11;93818.16;;;19.83;84.35
36378;BME280;22402;42.746;23.606;2023-05-09T08:17:37;93822.66;;;19.89;84.35
36378;BME280;22402;42.746;23.606;2023-05-09T08:20:03;93825.94;;;19.91;84.39
36378;BME280;22402;42.746;23.606;2023-05-09T08:22:29;93825.31;;;19.89;84.08
36378;BME280;22402;42.746;23.606;2023-05-09T08:24:55;93839.63;;;19.94;84.28
36378;BME280;22402;42.746;23.606;2023-05-09T08:27:20;93833.13;;;19.97;84.29
36378;BME280;22402;42.746;23.606;2023-05-09T08:29:46;93831.09;;;19.99;84.44
36378;BME280;22402;42.746;23.606;2023-05-09T08:32:11;93824.78;;;20.00;84.68
36378;BME280;22402;42.746;23.606;2023-05-09T08:34:37;93821.38;;;20.06;84.49
36378;BME280;22402;42.746;23.606;2023-05-09T08:37:03;93816.94;;;20.13;84.86
36378;BME280;22402;42.746;23.606;2023-05-09T08:39:29;93822.50;;;20.25;84.77
36378;BME280;22402;42.746;23.606;2023-05-09T08:41:58;93810.75;;;20.34;84.56
36378;BME280;22402;42.746;23.606;2023-05-09T08:44:24;93811.03;;;20.46;84.65
36378;BME280;22402;42.746;23.606;2023-05-09T08:46:54;93814.38;;;20.55;84.44
36378;BME280;22402;42.746;23.606;2023-05-09T08:49:20;93806.25;;;20.63;84.32
36378;BME280;22402;42.746;23.606;2023-05-09T08:51:47;93816.16;;;20.82;83.69
36378;BME280;22402;42.746;23.606;2023-05-09T08:54:13;93807.19;;;20.90;82.53
36378;BME280;22402;42.746;23.606;2023-05-09T08:56:40;93815.78;;;20.99;80.91
36378;BME280;22402;42.746;23.606;2023-05-09T08:59:06;93798.25;;;20.98;78.90
36378;BME280;22402;42.746;23.606;2023-05-09T09:01:35;93809.09;;;21.09;78.20
36378;BME280;22402;42.746;23.606;2023-05-09T09:04:05;93813.38;;;21.17;77.14
36378;BME280;22402;42.746;23.606;2023-05-09T09:06:33;93806.06;;;21.19;76.19
36378;BME280;22402;42.746;23.606;2023-05-09T09:08:59;93803.41;;;21.26;75.31
36378;BME280;22402;42.746;23.606;2023-05-09T09:11:25;93806.28;;;21.31;74.76
36378;BME280;22402;42.746;23.606;2023-05-09T09:13:53;93805.66;;;21.35;73.84
36378;BME280;22402;42.746;23.606;2023-05-09T09:16:21;93800.22;;;21.37;73.74
36378;BME280;22402;42.746;23.606;2023-05-09T09:18:49;93800.03;;;21.45;73.38
36378;BME280;22402;42.746;23.606;2023-05-09T09:21:17;93777.97;;;21.38;72.99
36378;BME280;22402;42.746;23.606;2023-05-09T09:23:44;93800.03;;;21.58;72.79
36378;BME280;22402;42.746;23.606;2023-05-09T09:26:12;93804.53;;;21.65;72.46
36378;BME280;22402;42.746;23.606;2023-05-09T09:28:37;93799.63;;;21.68;72.12
36378;BME280;22402;42.746;23.606;2023-05-09T09:31:21;93791.25;;;21.65;71.61
36378;BME280;22402;42.746;23.606;2023-05-09T09:33:47;93800.06;;;21.72;71.32
36378;BME280;22402;42.746;23.606;2023-05-09T09:36:12;93799.44;;;21.70;71.48
36378;BME280;22402;42.746;23.606;2023-05-09T09:38:41;93796.78;;;21.70;71.90
36378;BME280;22402;42.746;23.606;2023-05-09T09:41:11;93797.81;;;21.69;72.95
36378;BME280;22402;42.746;23.606;2023-05-09T09:43:37;93797.19;;;21.67;73.21
36378;BME280;22402;42.746;23.606;2023-05-09T09:46:03;93794.31;;;21.68;73.60
36378;BME280;22402;42.746;23.606;2023-05-09T09:48:31;93777.19;;;21.57;73.59
36378;BME280;22402;42.746;23.606;2023-05-09T09:51:09;93793.91;;;21.65;73.11
36378;BME280;22402;42.746;23.606;2023-05-09T09:53:42;93797.19;;;21.60;72.86
36378;BME280;22402;42.746;23.606;2023-05-09T09:56:08;93796.38;;;21.59;72.70
36378;BME280;22402;42.746;23.606;2023-05-09T09:58:36;93797.78;;;21.55;72.81
36378;BME280;22402;42.746;23.606;2023-05-09T10:01:06;93805.34;;;21.58;72.70
36378;BME280;22402;42.746;23.606;2023-05-09T10:03:40;93811.03;;;21.55;72.88
36378;BME280;22402;42.746;23.606;2023-05-09T10:06:10;93804.53;;;21.51;72.42
36378;BME280;22402;42.746;23.606;2023-05-09T10:08:38;93810.22;;;21.48;72.70
36378;BME280;22402;42.746;23.606;2023-05-09T10:11:04;93808.97;;;21.44;72.54
36378;BME280;22402;42.746;23.606;2023-05-09T10:13:30;93800.78;;;21.32;72.75
36378;BME280;22402;42.746;23.606;2023-05-09T10:16:02;93797.94;;;21.34;72.95
36378;BME280;22402;42.746;23.606;2023-05-09T10:18:29;93804.84;;;21.28;72.74
36378;BME280;22402;42.746;23.606;2023-05-09T10:20:55;93786.69;;;21.12;72.40
36378;BME280;22402;42.746;23.606;2023-05-09T10:23:25;93805.25;;;21.19;72.05
36378;BME280;22402;42.746;23.606;2023-05-09T10:28:31;93803.78;;;21.09;72.29
36378;BME280;22402;42.746;23.606;2023-05-09T10:31:26;93792.16;;;21.04;72.13
36378;BME280;22402;42.746;23.606;2023-05-09T10:33:53;93800.91;;;21.04;72.17
36378;BME280;22402;42.746;23.606;2023-05-09T10:36:21;93801.72;;;21.05;72.42
36378;BME280;22402;42.746;23.606;2023-05-09T10:38:47;93800.69;;;21.06;72.55
36378;BME280;22402;42.746;23.606;2023-05-09T10:41:15;93793.78;;;21.11;72.78
36378;BME280;22402;42.746;23.606;2023-05-09T10:43:41;93796.25;;;21.20;72.66
36378;BME280;22402;42.746;23.606;2023-05-09T10:46:08;93791.38;;;21.23;72.46
36378;BME280;22402;42.746;23.606;2023-05-09T10:48:33;93799.19;;;21.38;72.51
36378;BME280;22402;42.746;23.606;2023-05-09T10:51:01;93799.22;;;21.51;72.52
36378;BME280;22402;42.746;23.606;2023-05-09T10:53:47;93801.28;;;21.63;72.44
36378;BME280;22402;42.746;23.606;2023-05-09T10:56:23;93800.06;;;21.72;71.68
36378;BME280;22402;42.746;23.606;2023-05-09T10:58:50;93794.31;;;21.88;70.49
36378;BME280;22402;42.746;23.606;2023-05-09T11:01:36;93799.63;;;22.01;70.06
36378;BME280;22402;42.746;23.606;2023-05-09T11:04:10;93793.72;;;22.19;69.03
36378;BME280;22402;42.746;23.606;2023-05-09T11:06:40;93789.00;;;22.35;68.71
36378;BME280;22402;42.746;23.606;2023-05-09T11:11:54;93797.06;;;22.73;66.30
36378;BME280;22402;42.746;23.606;2023-05-09T11:14:46;93796.56;;;22.96;66.88
36378;BME280;22402;42.746;23.606;2023-05-09T11:22:20;93790.97;;;23.49;64.06
36378;BME280;22402;42.746;23.606;2023-05-09T11:24:50;93785.13;;;23.65;66.34
36378;BME280;22402;42.746;23.606;2023-05-09T11:27:20;93791.34;;;23.84;67.00
36378;BME280;22402;42.746;23.606;2023-05-09T11:29:50;93780.63;;;23.91;66.67
36378;BME280;22402;42.746;23.606;2023-05-09T11:32:16;93784.63;;;24.07;64.69
36378;BME280;22402;42.746;23.606;2023-05-09T11:34:43;93790.69;;;24.14;63.08
36378;BME280;22402;42.746;23.606;2023-05-09T11:37:14;93783.47;;;24.21;62.07
36378;BME280;22402;42.746;23.606;2023-05-09T11:40:00;93796.03;;;24.32;61.55
36378;BME280;22402;42.746;23.606;2023-05-09T11:42:27;93792.94;;;24.36;61.14
36378;BME280;22402;42.746;23.606;2023-05-09T11:44:53;93793.72;;;24.43;60.95
36378;BME280;22402;42.746;23.606;2023-05-09T11:47:20;93793.72;;;24.43;60.72
36378;BME280;22402;42.746;23.606;2023-05-09T11:49:47;93776.94;;;24.36;60.72
36378;BME280;22402;42.746;23.606;2023-05-09T11:52:13;93788.41;;;24.43;60.53
36378;BME280;22402;42.746;23.606;2023-05-09T11:54:39;93795.75;;;24.41;60.39
36378;BME280;22402;42.746;23.606;2023-05-09T11:57:05;93784.50;;;24.39;60.52
36378;BME280;22402;42.746;23.606;2023-05-09T11:59:34;93780.50;;;24.29;60.17
36378;BME280;22402;42.746;23.606;2023-05-09T12:02:04;93797.25;;;24.37;60.06
36378;BME280;22402;42.746;23.606;2023-05-09T12:04:30;93791.31;;;24.34;60.33
36378;BME280;22402;42.746;23.606;2023-05-09T12:07:00;93792.38;;;24.33;60.81
36378;BME280;22402;42.746;23.606;2023-05-09T12:09:29;93792.81;;;24.30;60.67
36378;BME280;22402;42.746;23.606;2023-05-09T12:11:58;93779.75;;;24.22;60.74
36378;BME280;22402;42.746;23.606;2023-05-09T12:14:29;93792.03;;;24.23;61.05
36378;BME280;22402;42.746;23.606;2023-05-09T12:16:55;93803.56;;;24.17;61.23
36378;BME280;22402;42.746;23.606;2023-05-09T12:19:22;93796.00;;;24.14;61.45
36378;BME280;22402;42.746;23.606;2023-05-09T12:21:48;93796.69;;;24.09;61.90
36378;BME280;22402;42.746;23.606;2023-05-09T12:24:19;93793.06;;;24.04;62.28
36378;BME280;22402;42.746;23.606;2023-05-09T12:26:45;93800.88;;;23.99;62.58
36378;BME280;22402;42.746;23.606;2023-05-09T12:29:11;93789.03;;;23.95;62.94
36378;BME280;22402;42.746;23.606;2023-05-09T12:31:37;93790.72;;;23.89;62.87
36378;BME280;22402;42.746;23.606;2023-05-09T12:34:03;93792.97;;;23.85;62.83
36378;BME280;22402;42.746;23.606;2023-05-09T12:36:33;93784.59;;;23.82;62.24
36378;BME280;22402;42.746;23.606;2023-05-09T12:38:59;93782.63;;;23.77;61.48
36378;BME280;22402;42.746;23.606;2023-05-09T12:41:24;93780.16;;;23.76;62.22
36378;BME280;22402;42.746;23.606;2023-05-09T12:43:50;93784.47;;;23.77;62.45
36378;BME280;22402;42.746;23.606;2023-05-09T12:46:19;93783.84;;;23.75;62.45
36378;BME280;22402;42.746;23.606;2023-05-09T12:48:45;93783.84;;;23.75;62.31
36378;BME280;22402;42.746;23.606;2023-05-09T12:51:17;93782.00;;;23.75;62.55
36378;BME280;22402;42.746;23.606;2023-05-09T12:53:43;93781.19;;;23.75;61.98
36378;BME280;22402;42.746;23.606;2023-05-09T12:56:19;93767.50;;;23.71;61.90
36378;BME280;22402;42.746;23.606;2023-05-09T12:58:52;93768.94;;;23.74;61.88
36378;BME280;22402;42.746;23.606;2023-05-09T13:01:18;93766.84;;;23.76;49.93
36378;BME280;22402;42.746;23.606;2023-05-09T13:03:50;93763.78;;;23.47;48.91
36378;BME280;22402;42.746;23.606;2023-05-09T13:06:16;93761.16;;;23.09;48.58
36378;BME280;22402;42.746;23.606;2023-05-09T13:08:41;93768.84;;;22.79;48.63
36378;BME280;22402;42.746;23.606;2023-05-09T13:11:10;93759.53;;;22.49;48.38